Time;durP1;ratioP1;P1;durP2;ratioP2;P2;SDS_P1;SDS_P2;PMS_P1;PMS_P2;Temp;Humidity;BMP_temperature;BMP_pressure;BME280_temperature;BME280_humidity;BME280_pressure;Samples;Min_cycle;Max_cycle;Signal;HPM_P1;HPM_P2
2022/12/15 00:38:53;;;;;;;;;;;;;;;15.60;48.67;100289.47;4998776;28;1133;-50
2022/12/15 00:41:18;;;;;;;;;;;;;;;15.35;49.51;100272.00;4998397;28;1109;-51
2022/12/15 00:43:43;;;;;;;;;;;;;;;16.06;47.71;100262.72;4998672;28;1148;-53
2022/12/15 00:48:53;;;;;;;;;;;;;;;16.02;47.83;100256.16;4997989;28;1132;-54
2022/12/15 00:51:18;;;;;;;;;;;;;;;15.63;48.66;100256.84;4997940;28;1149;-52
2022/12/15 01:21:04;;;;;;;;;;;;;;;17.21;44.98;100181.09;4997989;28;1124;-51
2022/12/15 01:23:30;;;;;;;;;;;;;;;16.31;47.14;100186.81;4998105;28;1180;-52
2022/12/15 01:25:56;;;;;;;;;;;;;;;15.79;48.53;100180.03;4997288;28;1160;-53
2022/12/15 01:28:21;;;;;;;;;;;;;;;15.55;49.19;100176.00;4997489;28;1129;-51
2022/12/15 01:30:47;;;;;;;;;;;;;;;16.73;46.48;100179.91;4996806;28;1207;-51
2022/12/15 01:33:12;;;;;;;;;;;;;;;17.07;45.20;100176.28;4997480;28;1970;-51
2022/12/15 01:35:38;;;;;;;;;;;;;;;16.13;47.58;100162.81;4997570;28;1117;-53
2022/12/15 01:38:03;;;;;;;;;;;;;;;15.76;48.39;100167.69;4997433;28;1105;-50
2022/12/15 01:40:44;;;;;;;;;;;;;;;15.52;49.17;100160.16;4997172;28;1152;-53
2022/12/15 01:43:16;;;;;;;;;;;;;;;16.08;48.17;100161.75;4997196;28;1102;-51
2022/12/15 01:45:45;;;;;;;;;;;;;;;16.85;45.73;100157.53;4997411;28;1208;-50
2022/12/15 01:48:11;;;;;;;;;;;;;;;15.94;48.23;100149.00;4996965;28;1216;-52
2022/12/15 01:50:44;;;;;;;;;;;;;;;15.65;48.95;100150.47;4997496;28;1133;-50
2022/12/15 01:53:09;;;;;;;;;;;;;;;15.43;49.54;100145.41;4997248;28;1965;-52
2022/12/15 01:55:35;;;;;;;;;;;;;;;15.56;49.45;100150.25;4996891;28;871;-55
2022/12/15 01:58:01;;;;;;;;;;;;;;;17.05;45.70;100141.97;4979970;28;1233;-54
2022/12/15 02:00:27;;;;;;;;;;;;;;;16.03;48.13;100148.09;4997099;28;1267;-54
2022/12/15 02:02:52;;;;;;;;;;;;;;;15.60;49.25;100144.22;4996986;28;1117;-52
2022/12/15 02:05:18;;;;;;;;;;;;;;;15.96;48.22;100142.09;4980070;28;1129;-52
2022/12/15 02:07:43;;;;;;;;;;;;;;;17.34;44.82;100135.59;4979798;28;927;-55
2022/12/15 02:10:09;;;;;;;;;;;;;;;16.26;47.61;100134.75;4996795;28;1128;-53
2022/12/15 02:12:37;;;;;;;;;;;;;;;15.82;48.88;100132.88;4996818;28;1906;-51
2022/12/15 02:15:12;;;;;;;;;;;;;;;15.56;49.45;100124.78;4997613;28;1184;-51
2022/12/15 02:17:43;;;;;;;;;;;;;;;15.51;49.47;100131.09;4997123;28;1157;-52
2022/12/15 02:20:27;;;;;;;;;;;;;;;17.13;45.52;100124.84;4979574;28;863;-48
2022/12/15 02:23:05;;;;;;;;;;;;;;;16.56;46.85;100124.59;4996900;28;1177;-53
2022/12/15 02:25:34;;;;;;;;;;;;;;;15.91;48.62;100131.19;4997078;28;1187;-49
2022/12/15 02:27:59;;;;;;;;;;;;;;;15.63;48.96;100128.03;4997003;28;1172;-49
2022/12/15 02:30:30;;;;;;;;;;;;;;;15.70;49.34;100123.06;4996808;28;1211;-51
2022/12/15 02:33:03;;;;;;;;;;;;;;;17.17;45.62;100108.63;4996110;28;1957;-54
2022/12/15 02:36:04;;;;;;;;;;;;;;;16.07;47.91;100099.81;4997139;28;1219;-52
2022/12/15 02:38:33;;;;;;;;;;;;;;;15.66;49.05;100108.28;4940313;29;1362;-49
2022/12/15 02:40:59;;;;;;;;;;;;;;;15.65;49.25;100103.88;4971079;28;1101;-52
2022/12/15 02:43:25;;;;;;;;;;;;;;;17.17;45.41;100106.69;4980525;28;1085;-49
2022/12/15 02:45:56;;;;;;;;;;;;;;;16.21;47.88;100110.09;4979898;28;1177;-50
2022/12/15 02:48:44;;;;;;;;;;;;;;;15.78;49.11;100120.81;4980132;28;1466;-53
2022/12/15 02:51:19;;;;;;;;;;;;;;;15.48;49.86;100119.91;4977807;28;1424;-51
2022/12/15 02:53:47;;;;;;;;;;;;;;;15.30;50.00;100118.63;4980508;28;1910;-49
2022/12/15 02:56:16;;;;;;;;;;;;;;;16.70;46.67;100113.75;4980797;28;867;-52
2022/12/15 02:58:51;;;;;;;;;;;;;;;16.89;45.94;100111.13;4981098;28;1132;-54
2022/12/15 03:01:23;;;;;;;;;;;;;;;15.94;48.66;100105.94;4979821;28;1192;-53
2022/12/15 03:03:49;;;;;;;;;;;;;;;15.62;49.45;100107.19;4980785;28;1148;-53
2022/12/15 03:06:14;;;;;;;;;;;;;;;15.47;49.88;100110.03;4981143;28;1200;-51
2022/12/15 03:08:40;;;;;;;;;;;;;;;16.91;46.43;100098.75;4978770;28;943;-48
2022/12/15 03:11:05;;;;;;;;;;;;;;;16.66;46.54;100099.81;4980484;28;1155;-51
2022/12/15 03:13:30;;;;;;;;;;;;;;;15.95;48.71;100099.34;4978837;28;1922;-49
2022/12/15 03:15:57;;;;;;;;;;;;;;;15.62;49.38;100101.72;4980550;28;1453;-50
2022/12/15 03:18:22;;;;;;;;;;;;;;;16.94;46.27;100086.34;4980921;28;1105;-50
2022/12/15 03:20:48;;;;;;;;;;;;;;;16.56;46.92;100072.47;4980316;28;938;-51
2022/12/15 03:23:14;;;;;;;;;;;;;;;15.96;48.47;100072.75;4979745;28;1164;-50
2022/12/15 03:25:39;;;;;;;;;;;;;;;15.66;49.62;100069.91;4980860;28;1207;-50
2022/12/15 03:28:05;;;;;;;;;;;;;;;15.49;49.98;100062.06;4980763;28;1199;-54
2022/12/15 03:30:30;;;;;;;;;;;;;;;15.68;49.54;100069.63;4980135;28;1227;-54
2022/12/15 03:32:56;;;;;;;;;;;;;;;17.22;45.42;100059.06;4976965;28;1975;-54
2022/12/15 03:35:21;;;;;;;;;;;;;;;16.45;47.41;100057.22;4980114;28;1105;-54
2022/12/15 03:37:46;;;;;;;;;;;;;;;15.89;48.68;100048.38;4992903;28;1205;-52
2022/12/15 03:40:12;;;;;;;;;;;;;;;15.59;49.63;100054.91;4999405;28;1164;-53
2022/12/15 03:42:47;;;;;;;;;;;;;;;15.43;49.89;100065.13;4999545;28;1136;-55
2022/12/15 03:45:22;;;;;;;;;;;;;;;15.78;49.30;100064.09;4985964;28;1168;-49
2022/12/15 03:47:47;;;;;;;;;;;;;;;17.23;45.53;100052.47;4998718;28;1101;-54
2022/12/15 03:50:14;;;;;;;;;;;;;;;16.18;48.27;100056.63;4999743;28;1183;-54
2022/12/15 03:52:39;;;;;;;;;;;;;;;15.72;49.24;100060.56;4999012;28;1914;-50
2022/12/15 03:55:06;;;;;;;;;;;;;;;15.49;50.04;100050.31;4999315;28;1117;-56
2022/12/15 03:57:32;;;;;;;;;;;;;;;15.33;50.50;100052.31;4999447;28;1314;-53
2022/12/15 03:59:57;;;;;;;;;;;;;;;16.07;48.53;100049.59;4999301;28;1276;-52
2022/12/15 04:02:22;;;;;;;;;;;;;;;17.29;45.65;100034.78;4999480;28;1141;-57
2022/12/15 04:04:48;;;;;;;;;;;;;;;16.20;48.12;100048.13;4999067;28;1152;-57
2022/12/15 04:07:13;;;;;;;;;;;;;;;15.76;49.57;100049.81;4999252;28;1124;-56
2022/12/15 04:09:39;;;;;;;;;;;;;;;15.54;50.06;100053.00;4999259;28;1140;-57
2022/12/15 04:12:04;;;;;;;;;;;;;;;15.49;50.25;100053.84;4999044;28;1945;-57
2022/12/15 04:14:30;;;;;;;;;;;;;;;17.09;46.03;100050.44;4998859;28;1196;-57
2022/12/15 04:16:55;;;;;;;;;;;;;;;16.56;47.11;100045.84;4984144;28;1109;-58
2022/12/15 04:22:05;;;;;;;;;;;;;;;15.59;49.72;100044.75;4998469;28;1215;-56
2022/12/15 05:32:50;;;;;;;;;;;;;;;15.58;50.39;100051.31;4997153;28;1965;-57
2022/12/15 05:35:15;;;;;;;;;;;;;;;17.12;46.22;100054.53;4996929;28;1073;-57
2022/12/15 05:37:41;;;;;;;;;;;;;;;16.17;48.60;100065.16;4996564;28;1120;-57
2022/12/15 05:40:07;;;;;;;;;;;;;;;15.69;49.75;100072.06;4997209;28;1156;-57
2022/12/15 05:42:32;;;;;;;;;;;;;;;15.48;50.32;100065.09;4996828;28;1104;-57
2022/12/15 05:44:57;;;;;;;;;;;;;;;15.38;50.74;100066.78;4996644;28;1947;-57
2022/12/15 05:47:23;;;;;;;;;;;;;;;16.98;46.51;100065.41;4996507;28;1160;-57
2022/12/15 05:49:49;;;;;;;;;;;;;;;16.49;47.74;100055.53;4996749;28;1187;-57
2022/12/15 05:52:15;;;;;;;;;;;;;;;15.86;49.22;100055.25;4986084;28;1903;-57
2022/12/15 05:54:41;;;;;;;;;;;;;;;15.55;50.11;100063.66;4976814;28;1228;-57
2022/12/15 05:57:06;;;;;;;;;;;;;;;16.82;47.11;100061.22;4988620;28;1110;-57
2022/12/15 05:59:32;;;;;;;;;;;;;;;17.14;46.02;100065.22;4996662;28;1186;-57
2022/12/15 06:01:57;;;;;;;;;;;;;;;16.17;48.59;100065.16;4996330;28;1229;-59
2022/12/15 06:04:23;;;;;;;;;;;;;;;15.80;49.55;100074.78;4996904;28;1232;-59
2022/12/15 06:06:48;;;;;;;;;;;;;;;15.60;50.17;100078.44;4996555;28;1184;-54
2022/12/15 06:09:14;;;;;;;;;;;;;;;16.39;48.43;100079.19;4995995;28;1164;-58
2022/12/15 06:11:39;;;;;;;;;;;;;;;16.90;46.69;100083.38;4995665;28;1910;-58
2022/12/15 06:14:05;;;;;;;;;;;;;;;16.07;48.77;100086.09;4996240;28;1074;-58
2022/12/15 06:16:30;;;;;;;;;;;;;;;15.72;49.63;100085.22;4996608;28;2108;-57
2022/12/15 06:18:56;;;;;;;;;;;;;;;15.56;50.40;100094.66;4996988;28;1081;-58
2022/12/15 06:21:23;;;;;;;;;;;;;;;17.13;46.46;100116.63;4988444;28;1137;-56
2022/12/15 06:23:49;;;;;;;;;;;;;;;16.31;48.40;100110.00;4976433;28;1185;-56
2022/12/15 06:26:16;;;;;;;;;;;;;;;15.84;49.68;100122.47;4976205;28;1232;-56
2022/12/15 06:28:42;;;;;;;;;;;;;;;17.31;45.84;100122.47;4976872;28;1271;-56
2022/12/15 06:31:08;;;;;;;;;;;;;;;16.15;48.83;100119.50;4991717;28;1193;-56
2022/12/15 06:33:34;;;;;;;;;;;;;;;17.95;44.39;100128.47;4996184;28;1981;-56
2022/12/15 06:36:03;;;;;;;;;;;;;;;17.23;45.92;100124.72;4995818;28;1089;-56
2022/12/15 06:38:29;;;;;;;;;;;;;;;16.41;47.39;100137.38;4978999;28;1184;-56
2022/12/15 06:40:55;;;;;;;;;;;;;;;17.89;44.45;100129.59;4984165;28;1134;-56
2022/12/15 06:43:20;;;;;;;;;;;;;;;16.55;47.47;100142.19;4996227;28;1089;-56
2022/12/15 06:45:49;;;;;;;;;;;;;;;18.14;43.99;100142.19;4993493;28;1844;-56
2022/12/15 06:48:14;;;;;;;;;;;;;;;17.62;45.12;100161.34;4996478;28;1121;-56
2022/12/15 06:50:40;;;;;;;;;;;;;;;16.85;46.97;100160.28;4996168;28;1242;-56
2022/12/15 06:53:05;;;;;;;;;;;;;;;18.74;42.94;100149.69;4996452;28;1981;-56
2022/12/15 06:55:31;;;;;;;;;;;;;;;17.36;45.78;100156.19;4996363;28;1152;-56
2022/12/15 06:57:56;;;;;;;;;;;;;;;17.30;46.21;100167.53;4996209;28;911;-56
2022/12/15 07:00:22;;;;;;;;;;;;;;;17.91;44.55;100152.19;4996126;28;1172;-56
2022/12/15 07:02:47;;;;;;;;;;;;;;;16.82;46.80;100158.13;4996087;28;1148;-56
2022/12/15 07:05:13;;;;;;;;;;;;;;;18.78;42.93;100152.66;4995440;28;1101;-56
2022/12/15 07:07:38;;;;;;;;;;;;;;;17.53;45.53;100161.19;4995502;28;1295;-56
2022/12/15 07:10:04;;;;;;;;;;;;;;;18.23;44.52;100156.06;4981336;28;1180;-56
2022/12/15 07:12:29;;;;;;;;;;;;;;;18.87;42.39;100169.31;4975927;28;1988;-56
2022/12/15 07:14:55;;;;;;;;;;;;;;;17.50;45.65;100178.28;4980854;28;1938;-56
2022/12/15 07:17:20;;;;;;;;;;;;;;;16.91;46.50;100177.56;4995721;28;1153;-56
2022/12/15 07:19:45;;;;;;;;;;;;;;;18.14;44.89;100175.19;4996156;28;1184;-56
2022/12/15 07:22:11;;;;;;;;;;;;;;;17.20;46.42;100184.94;4997212;28;897;-56
2022/12/15 07:24:36;;;;;;;;;;;;;;;18.60;43.53;100181.91;4999709;28;1089;-56
2022/12/15 07:27:02;;;;;;;;;;;;;;;18.68;43.05;100186.72;4999500;28;1097;-56
2022/12/15 07:29:27;;;;;;;;;;;;;;;17.36;45.69;100180.91;4999572;28;1184;-56
2022/12/15 07:31:53;;;;;;;;;;;;;;;16.86;46.33;100185.84;4998562;28;1981;-56
2022/12/15 07:34:18;;;;;;;;;;;;;;;17.83;45.37;100188.56;4999157;28;939;-56
2022/12/15 07:36:43;;;;;;;;;;;;;;;17.10;46.85;100197.69;4999164;28;1224;-56
2022/12/15 07:39:09;;;;;;;;;;;;;;;19.06;42.64;100197.63;4999439;28;1137;-56
2022/12/15 07:41:34;;;;;;;;;;;;;;;17.70;45.21;100187.38;4997993;28;1203;-56
2022/12/15 07:44:01;;;;;;;;;;;;;;;17.18;46.18;100187.16;4961648;28;1312;-56
2022/12/15 07:46:27;;;;;;;;;;;;;;;17.84;45.48;100193.78;4993446;28;1919;-56
2022/12/15 07:48:53;;;;;;;;;;;;;;;17.13;46.83;100189.97;4979596;28;1221;-56
2022/12/15 07:51:19;;;;;;;;;;;;;;;18.92;43.05;100186.59;4979403;28;1225;-56
2022/12/15 07:53:44;;;;;;;;;;;;;;;18.76;43.17;100186.03;4979548;28;1976;-56
2022/12/15 07:56:10;;;;;;;;;;;;;;;17.47;45.93;100184.34;4998862;28;1176;-56
2022/12/15 07:58:35;;;;;;;;;;;;;;;18.45;44.33;100192.06;4997959;28;1088;-56
2022/12/15 08:01:01;;;;;;;;;;;;;;;17.68;45.57;100184.88;4998629;28;1070;-56
2022/12/15 08:03:27;;;;;;;;;;;;;;;17.25;46.05;100195.84;4998605;28;1105;-56
2022/12/15 08:05:53;;;;;;;;;;;;;;;18.63;43.83;100200.56;4998307;28;1191;-56
2022/12/15 08:08:18;;;;;;;;;;;;;;;17.27;46.64;100204.66;4991743;28;1169;-56
2022/12/15 08:10:44;;;;;;;;;;;;;;;16.91;46.21;100196.78;4995288;28;1082;-56
2022/12/15 08:13:09;;;;;;;;;;;;;;;18.55;44.14;100188.31;4998545;28;1902;-56
2022/12/15 08:15:38;;;;;;;;;;;;;;;17.12;46.68;100188.34;4998533;28;1897;-56
2022/12/15 08:18:03;;;;;;;;;;;;;;;17.66;46.38;100198.13;4998302;28;1180;-56
2022/12/15 08:20:31;;;;;;;;;;;;;;;17.89;45.52;100193.72;4998659;28;1017;-56
2022/12/15 08:22:57;;;;;;;;;;;;;;;17.10;46.30;100197.69;4998047;28;1219;-56
2022/12/15 08:25:23;;;;;;;;;;;;;;;18.70;44.04;100201.00;4998111;28;1211;-56
2022/12/15 08:27:51;;;;;;;;;;;;;;;17.39;46.21;100204.22;4998285;28;1156;-56
2022/12/15 08:30:17;;;;;;;;;;;;;;;16.95;46.31;100208.81;4998421;28;1133;-56
2022/12/15 08:32:43;;;;;;;;;;;;;;;17.70;45.80;100204.69;4998102;28;1987;-56
2022/12/15 08:35:08;;;;;;;;;;;;;;;17.02;46.78;100206.53;4993440;28;963;-56
2022/12/15 08:37:34;;;;;;;;;;;;;;;18.56;44.44;100208.41;4978025;28;1205;-56
2022/12/15 08:39:59;;;;;;;;;;;;;;;17.47;46.46;100205.53;4978302;28;1335;-56
2022/12/15 08:42:25;;;;;;;;;;;;;;;17.02;46.44;100212.03;4978230;28;1173;-56
2022/12/15 08:44:50;;;;;;;;;;;;;;;18.12;45.59;100214.03;4980687;28;2338;-56
2022/12/15 08:47:15;;;;;;;;;;;;;;;17.19;46.74;100216.28;4996628;28;982;-56
2022/12/15 08:49:41;;;;;;;;;;;;;;;16.84;46.60;100207.25;4997762;28;1195;-56
2022/12/15 08:52:06;;;;;;;;;;;;;;;18.43;44.55;100198.97;4997936;28;1915;-56
2022/12/15 08:54:32;;;;;;;;;;;;;;;17.15;47.12;100209.72;4997457;28;1105;-56
2022/12/15 08:56:58;;;;;;;;;;;;;;;18.79;44.11;100206.66;4994765;28;1113;-56
2022/12/15 08:59:23;;;;;;;;;;;;;;;18.25;44.84;100201.44;4996869;28;1181;-56
2022/12/15 09:01:49;;;;;;;;;;;;;;;17.34;46.48;100218.84;4997627;28;1095;-56
2022/12/15 09:04:14;;;;;;;;;;;;;;;16.96;46.38;100210.47;4985811;28;1152;-56
2022/12/15 09:06:40;;;;;;;;;;;;;;;18.18;45.43;100220.25;4977941;28;1343;-56
2022/12/15 09:09:07;;;;;;;;;;;;;;;17.18;46.82;100222.88;4981539;28;1390;-56
2022/12/15 09:11:32;;;;;;;;;;;;;;;18.63;44.39;100219.84;4996601;28;1040;-56
2022/12/15 09:13:58;;;;;;;;;;;;;;;18.10;45.14;100224.53;4993926;28;1999;-56
2022/12/15 09:16:23;;;;;;;;;;;;;;;17.15;46.92;100221.50;4997296;28;2116;-56
2022/12/15 09:18:50;;;;;;;;;;;;;;;19.09;43.19;100232.84;4997263;28;1116;-57
2022/12/15 09:21:16;;;;;;;;;;;;;;;17.52;46.36;100235.69;4997329;28;950;-56
2022/12/15 09:23:41;;;;;;;;;;;;;;;17.18;46.44;100225.63;4997030;28;1228;-56
2022/12/15 09:26:07;;;;;;;;;;;;;;;18.38;44.83;100218.31;4992796;28;1145;-56
2022/12/15 09:28:32;;;;;;;;;;;;;;;17.31;46.79;100226.88;4996816;28;1260;-56
2022/12/15 09:31:08;;;;;;;;;;;;;;;18.56;44.85;100211.16;4993937;28;1077;-56
2022/12/15 09:33:33;;;;;;;;;;;;;;;17.94;45.70;100225.84;4995148;28;1987;-56
2022/12/15 09:35:59;;;;;;;;;;;;;;;17.24;46.64;100228.03;4996206;28;1354;-56
2022/12/15 09:38:24;;;;;;;;;;;;;;;17.79;46.46;100241.41;4993843;28;1184;-56
2022/12/15 09:40:50;;;;;;;;;;;;;;;17.33;46.72;100247.44;4982604;28;1189;-56
2022/12/15 09:43:16;;;;;;;;;;;;;;;16.91;46.70;100243.47;4996320;28;1211;-56
2022/12/15 09:45:43;;;;;;;;;;;;;;;18.08;45.61;100237.75;4993983;28;1839;-56
2022/12/15 09:48:09;;;;;;;;;;;;;;;17.13;46.77;100236.69;4978978;28;1185;-56
2022/12/15 09:50:37;;;;;;;;;;;;;;;18.46;45.14;100226.72;4979307;28;1110;-56
2022/12/15 09:53:02;;;;;;;;;;;;;;;17.85;45.88;100244.91;4996340;28;1993;-56
2022/12/15 09:55:29;;;;;;;;;;;;;;;17.02;46.98;100253.25;4978836;28;1081;-56
2022/12/15 09:58:03;;;;;;;;;;;;;;;17.95;46.18;100241.25;4996347;28;1183;-56
2022/12/15 10:00:29;;;;;;;;;;;;;;;17.09;47.25;100242.72;4996589;28;1303;-56
2022/12/15 10:02:54;;;;;;;;;;;;;;;19.06;43.72;100227.94;4993222;28;1229;-56
2022/12/15 10:05:20;;;;;;;;;;;;;;;18.60;44.32;100229.50;4995917;28;1042;-56
2022/12/15 10:07:45;;;;;;;;;;;;;;;17.53;46.63;100231.81;4995115;28;1055;-56
2022/12/15 10:10:17;;;;;;;;;;;;;;;17.22;46.41;100229.41;4978281;28;1074;-55
2022/12/15 10:12:42;;;;;;;;;;;;;;;18.43;44.82;100235.56;4995705;28;1973;-56
2022/12/15 10:15:24;;;;;;;;;;;;;;;17.26;47.08;100246.97;4978994;28;1868;-56
2022/12/15 10:17:51;;;;;;;;;;;;;;;17.71;46.77;100243.97;4990816;28;1113;-55
2022/12/15 10:20:17;;;;;;;;;;;;;;;17.67;46.49;100253.94;4978918;28;920;-56
2022/12/15 10:22:43;;;;;;;;;;;;;;;17.38;47.47;100257.56;4996608;28;1184;-56
2022/12/15 10:25:13;;;;;;;;;;;;;;;19.12;43.28;100265.28;4987500;28;1166;-56
2022/12/15 10:27:49;;;;;;;;;;;;;;;17.64;46.59;100265.50;4990211;28;1086;-56
2022/12/15 10:30:14;;;;;;;;;;;;;;;17.24;46.42;100277.47;4962549;28;1118;-56
2022/12/15 10:32:40;;;;;;;;;;;;;;;18.34;45.22;100284.19;4978482;28;1915;-56
2022/12/15 10:35:07;;;;;;;;;;;;;;;17.34;46.68;100273.00;4995629;28;1021;-56
2022/12/15 10:37:32;;;;;;;;;;;;;;;17.40;47.28;100271.81;4995586;28;1036;-55
2022/12/15 10:39:58;;;;;;;;;;;;;;;18.01;45.82;100284.06;4969876;28;1094;-56
2022/12/15 10:42:24;;;;;;;;;;;;;;;17.24;47.34;100287.66;4990470;28;1000;-56
2022/12/15 10:44:53;;;;;;;;;;;;;;;19.27;43.17;100290.97;4995741;28;1831;-56
2022/12/15 10:47:20;;;;;;;;;;;;;;;17.85;45.79;100301.84;4975814;28;1133;-56
2022/12/15 10:49:45;;;;;;;;;;;;;;;17.30;46.15;100304.91;4996160;28;985;-56
2022/12/15 10:52:31;;;;;;;;;;;;;;;17.44;46.65;100319.63;4996398;28;1914;-56
2022/12/15 10:54:56;;;;;;;;;;;;;;;17.43;46.63;100321.56;4995472;28;1103;-57
2022/12/15 10:57:26;;;;;;;;;;;;;;;17.87;46.49;100327.13;4980880;28;1117;-53
2022/12/15 10:59:52;;;;;;;;;;;;;;;18.95;43.77;100325.69;4999881;28;847;-54
2022/12/15 11:02:20;;;;;;;;;;;;;;;17.56;46.44;100324.72;4999580;28;1140;-54
2022/12/15 11:04:55;;;;;;;;;;;;;;;18.28;45.66;100323.88;4999807;28;1152;-56
2022/12/15 11:07:20;;;;;;;;;;;;;;;17.92;45.89;100329.84;4999573;28;1137;-57
2022/12/15 11:09:46;;;;;;;;;;;;;;;17.27;46.40;100331.84;4999638;28;1134;-55
2022/12/15 11:14:59;;;;;;;;;;;;;;;17.20;47.06;100336.06;4999785;28;1928;-56
2022/12/15 11:17:24;;;;;;;;;;;;;;;18.40;45.11;100332.53;4995539;28;1144;-56
2022/12/15 11:19:59;;;;;;;;;;;;;;;18.36;44.99;100336.97;4999344;28;1403;-55
2022/12/15 11:22:38;;;;;;;;;;;;;;;17.38;46.37;100343.56;4981631;28;1197;-56
2022/12/15 11:25:08;;;;;;;;;;;;;;;17.04;46.00;100338.94;4962399;28;1229;-56
2022/12/15 11:27:42;;;;;;;;;;;;;;;17.76;46.15;100335.47;4998630;28;1113;-57
2022/12/15 11:30:17;;;;;;;;;;;;;;;16.99;46.90;100327.19;4999305;28;1171;-56
2022/12/15 11:32:43;;;;;;;;;;;;;;;18.87;44.21;100331.84;4981647;28;1995;-56
2022/12/15 11:35:17;;;;;;;;;;;;;;;17.50;46.65;100332.22;4992906;28;1216;-57
2022/12/15 11:37:43;;;;;;;;;;;;;;;17.14;46.39;100339.94;4962153;28;1256;-57
2022/12/15 11:40:19;;;;;;;;;;;;;;;17.99;46.22;100344.03;4964659;28;1221;-56
2022/12/15 11:42:44;;;;;;;;;;;;;;;17.13;47.18;100352.88;4999202;28;1144;-55
2022/12/15 11:45:18;;;;;;;;;;;;;;;19.04;44.29;100347.84;4996163;28;1764;-55
2022/12/15 11:47:47;;;;;;;;;;;;;;;17.96;46.21;100355.63;4996581;28;1216;-55
2022/12/15 11:50:15;;;;;;;;;;;;;;;17.31;46.88;100361.53;4998663;28;1263;-55
2022/12/15 11:52:59;;;;;;;;;;;;;;;18.23;45.87;100366.06;4981830;28;1911;-55
2022/12/15 11:55:36;;;;;;;;;;;;;;;17.24;47.02;100357.16;4999046;28;1161;-55
2022/12/15 11:58:11;;;;;;;;;;;;;;;16.99;46.36;100371.94;4999095;28;1042;-56
2022/12/15 12:00:38;;;;;;;;;;;;;;;16.94;47.03;100380.19;4989109;28;947;-55
2022/12/15 12:03:23;;;;;;;;;;;;;;;17.68;46.64;100382.06;4974682;28;1175;-56
2022/12/15 12:05:54;;;;;;;;;;;;;;;17.53;47.26;100377.50;4999239;28;1089;-56
2022/12/15 12:08:20;;;;;;;;;;;;;;;19.22;43.87;100379.25;4997453;28;1152;-56
2022/12/15 12:10:46;;;;;;;;;;;;;;;17.66;46.64;100378.78;4998372;28;1412;-55
2022/12/15 12:13:11;;;;;;;;;;;;;;;17.14;47.10;100389.41;4998947;28;1918;-55
2022/12/15 12:15:44;;;;;;;;;;;;;;;17.13;47.25;100385.03;4998728;28;1934;-55
2022/12/15 12:18:20;;;;;;;;;;;;;;;17.36;47.39;100403.53;4980958;28;1415;-55
2022/12/15 12:20:48;;;;;;;;;;;;;;;17.97;46.55;100406.81;4998076;28;954;-56
2022/12/15 12:23:27;;;;;;;;;;;;;;;19.04;43.86;100395.53;4997877;28;1167;-56
2022/12/15 12:26:11;;;;;;;;;;;;;;;17.54;46.68;100401.16;4995315;28;1156;-56
2022/12/15 12:28:49;;;;;;;;;;;;;;;17.11;46.79;100396.31;4989978;28;1101;-55
2022/12/15 12:31:35;;;;;;;;;;;;;;;17.89;46.41;100393.66;4981440;28;1192;-56
2022/12/15 12:34:02;;;;;;;;;;;;;;;17.20;46.86;100404.75;4997392;28;1906;-55
2022/12/15 12:36:27;;;;;;;;;;;;;;;17.25;47.26;100405.53;4980625;28;1149;-55
2022/12/15 12:38:54;;;;;;;;;;;;;;;17.62;46.95;100414.28;4991651;28;1181;-55
2022/12/15 12:41:20;;;;;;;;;;;;;;;17.03;47.36;100413.41;4973564;28;1196;-56
2022/12/15 12:43:57;;;;;;;;;;;;;;;18.79;45.07;100411.28;4998345;28;1164;-56
2022/12/15 12:46:54;;;;;;;;;;;;;;;17.39;47.28;100421.34;4979397;28;1951;-55
2022/12/15 12:49:30;;;;;;;;;;;;;;;18.48;45.75;100421.88;4956435;28;1468;-55
2022/12/15 12:51:58;;;;;;;;;;;;;;;17.73;46.76;100426.00;4997206;28;1910;-56
2022/12/15 12:54:35;;;;;;;;;;;;;;;17.21;46.81;100423.69;4997675;28;1168;-56
2022/12/15 12:57:01;;;;;;;;;;;;;;;17.73;47.07;100429.56;4997974;28;1163;-55
2022/12/15 12:59:29;;;;;;;;;;;;;;;17.62;47.22;100430.78;4997691;28;1171;-55
2022/12/15 13:01:55;;;;;;;;;;;;;;;17.12;47.20;100430.09;4997612;28;1121;-52
2022/12/15 13:04:29;;;;;;;;;;;;;;;18.61;45.36;100434.94;4997731;28;1105;-55
2022/12/15 13:06:58;;;;;;;;;;;;;;;17.36;47.37;100435.66;4997541;28;1113;-55
2022/12/15 13:09:24;;;;;;;;;;;;;;;17.29;47.86;100425.00;4997805;28;1069;-55
2022/12/15 13:11:52;;;;;;;;;;;;;;;17.65;47.33;100443.13;4997195;28;1094;-55
2022/12/15 13:14:24;;;;;;;;;;;;;;;17.13;47.03;100448.22;4997790;28;1981;-56
2022/12/15 13:16:50;;;;;;;;;;;;;;;16.80;47.26;100445.88;4979665;28;2158;-56
2022/12/15 13:19:16;;;;;;;;;;;;;;;17.99;46.64;100454.09;4979564;28;1233;-56
2022/12/15 13:21:41;;;;;;;;;;;;;;;17.12;47.49;100457.56;4980134;28;1216;-56
2022/12/15 13:24:25;;;;;;;;;;;;;;;17.20;47.69;100466.00;4996737;28;1117;-54
2022/12/15 13:26:51;;;;;;;;;;;;;;;17.36;47.37;100474.97;4997450;28;1081;-57
2022/12/15 13:29:17;;;;;;;;;;;;;;;17.08;48.40;100480.13;4997146;28;1136;-56
2022/12/15 13:31:46;;;;;;;;;;;;;;;18.70;44.92;100478.34;4980120;28;1133;-56
2022/12/15 13:34:13;;;;;;;;;;;;;;;17.38;47.54;100494.75;4997064;28;1989;-56
2022/12/15 13:36:38;;;;;;;;;;;;;;;17.12;46.83;100496.03;4979568;28;1133;-56
2022/12/15 13:39:04;;;;;;;;;;;;;;;17.77;47.08;100488.38;4997406;28;1149;-56
2022/12/15 13:41:29;;;;;;;;;;;;;;;17.71;47.08;100486.81;4997129;28;1156;-56
2022/12/15 13:43:55;;;;;;;;;;;;;;;18.16;46.47;100483.09;4997154;28;1145;-56
2022/12/15 13:46:23;;;;;;;;;;;;;;;19.48;43.17;100501.78;4996654;28;1799;-56
2022/12/15 13:48:52;;;;;;;;;;;;;;;17.80;46.67;100517.25;4996888;28;901;-56
2022/12/15 13:51:29;;;;;;;;;;;;;;;17.55;47.43;100523.78;4996625;28;1120;-56
2022/12/15 13:53:57;;;;;;;;;;;;;;;18.23;46.04;100535.84;4979719;28;1914;-56
2022/12/15 13:56:55;;;;;;;;;;;;;;;17.26;47.29;100541.00;4996799;28;1322;-56
2022/12/15 13:59:24;;;;;;;;;;;;;;;19.01;44.25;100544.91;4964083;28;1057;-56
2022/12/15 14:01:50;;;;;;;;;;;;;;;17.76;46.34;100546.44;4996579;28;1065;-56
2022/12/15 14:04:15;;;;;;;;;;;;;;;17.34;47.14;100554.13;4996564;28;1077;-56
2022/12/15 14:06:53;;;;;;;;;;;;;;;18.10;46.36;100554.72;4996632;28;1124;-56
2022/12/15 14:09:20;;;;;;;;;;;;;;;17.48;46.63;100548.00;4996762;28;1199;-57
2022/12/15 14:11:45;;;;;;;;;;;;;;;18.71;45.53;100549.66;4979110;28;1164;-56
2022/12/15 14:14:14;;;;;;;;;;;;;;;17.77;46.94;100537.88;4979017;28;1902;-51
2022/12/15 14:16:40;;;;;;;;;;;;;;;17.27;46.89;100543.44;4996666;28;2120;-55
2022/12/15 14:19:10;;;;;;;;;;;;;;;17.95;47.26;100552.91;4995864;28;1180;-55
2022/12/15 14:21:36;;;;;;;;;;;;;;;17.45;47.42;100558.47;4996163;28;1149;-55
2022/12/15 14:24:01;;;;;;;;;;;;;;;17.08;46.83;100573.50;4992462;28;1287;-55
2022/12/15 14:26:29;;;;;;;;;;;;;;;17.42;47.44;100581.03;4959352;28;1202;-55
2022/12/15 14:29:01;;;;;;;;;;;;;;;17.34;47.61;100581.63;4978528;28;1426;-55
2022/12/15 14:31:27;;;;;;;;;;;;;;;17.38;47.72;100593.69;4994589;28;1197;-55
2022/12/15 14:33:57;;;;;;;;;;;;;;;18.64;45.54;100585.00;4999925;28;1906;-55
2022/12/15 14:36:23;;;;;;;;;;;;;;;17.42;47.27;100597.50;4982260;28;1316;-55
2022/12/15 14:38:49;;;;;;;;;;;;;;;17.06;47.21;100597.69;5000107;28;1252;-55
2022/12/15 14:41:19;;;;;;;;;;;;;;;17.99;47.19;100605.41;4999993;28;1205;-55
2022/12/15 14:43:44;;;;;;;;;;;;;;;17.45;47.61;100599.69;4982683;28;1230;-56
2022/12/15 14:46:10;;;;;;;;;;;;;;;17.05;47.36;100600.72;4982723;28;1982;-55
2022/12/15 14:48:37;;;;;;;;;;;;;;;17.76;47.71;100593.19;4967822;28;1221;-55
2022/12/15 14:51:02;;;;;;;;;;;;;;;17.35;48.02;100593.41;4979713;28;1213;-56
2022/12/15 14:53:30;;;;;;;;;;;;;;;16.95;47.39;100601.56;4965747;28;1910;-55
2022/12/15 14:55:55;;;;;;;;;;;;;;;17.43;47.91;100612.91;4997298;28;1232;-56
2022/12/15 14:58:36;;;;;;;;;;;;;;;17.16;47.88;100613.31;4989767;28;1295;-55
2022/12/15 15:01:02;;;;;;;;;;;;;;;16.77;48.02;100622.19;4972886;28;1225;-55
2022/12/15 15:03:33;;;;;;;;;;;;;;;18.02;46.78;100631.53;4980353;28;1257;-55
2022/12/15 15:06:00;;;;;;;;;;;;;;;17.16;47.54;100628.97;4997332;28;1197;-55
2022/12/15 15:08:29;;;;;;;;;;;;;;;18.36;46.35;100634.28;4982217;28;1419;-55
2022/12/15 15:10:56;;;;;;;;;;;;;;;17.62;47.46;100632.31;4999584;28;1192;-55
2022/12/15 15:13:22;;;;;;;;;;;;;;;17.02;47.67;100623.25;4981222;28;1973;-55